Time;durP1;ratioP1;P1;durP2;ratioP2;P2;SDS_P1;SDS_P2;PMS_P1;PMS_P2;Temp;Humidity;BMP_temperature;BMP_pressure;BME280_temperature;BME280_humidity;BME280_pressure;Samples;Min_cycle;Max_cycle;Signal;HPM_P1;HPM_P2
2021/04/24 00:02:23;;;;;;;4.57;2.70;;;;;;;7.60;50.80;101317.44;5068993;28;20028;-64
2021/04/24 00:04:48;;;;;;;5.20;2.40;;;;;;;7.53;52.15;101320.63;5059809;28;20404;-65
2021/04/24 00:07:14;;;;;;;5.53;2.72;;;;;;;7.36;52.41;101321.84;5053607;28;20124;-65
2021/04/24 00:09:40;;;;;;;3.85;2.15;;;;;;;7.35;50.90;101322.81;5053038;28;20029;-65
2021/04/24 00:12:07;;;;;;;3.15;1.80;;;;;;;7.35;51.17;101323.66;5051574;28;20128;-68
2021/04/24 00:14:33;;;;;;;3.45;1.90;;;;;;;7.36;51.03;101325.31;5057529;28;20033;-65
2021/04/24 00:16:58;;;;;;;4.70;2.60;;;;;;;7.49;49.14;101319.19;5070678;28;20067;-65
2021/04/24 00:19:24;;;;;;;5.93;2.60;;;;;;;7.66;48.40;101327.50;5060131;28;20049;-65
2021/04/24 00:21:49;;;;;;;4.97;2.70;;;;;;;7.79;48.02;101324.78;5069966;28;20033;-65
2021/04/24 00:24:14;;;;;;;4.18;2.10;;;;;;;7.84;48.75;101320.03;5063950;28;20029;-65
2021/04/24 00:26:40;;;;;;;4.18;2.50;;;;;;;7.78;49.26;101322.28;5040795;28;20511;-66
2021/04/24 00:29:05;;;;;;;6.68;2.47;;;;;;;7.80;49.01;101323.03;5071813;28;20029;-64
2021/04/24 00:31:31;;;;;;;5.05;2.58;;;;;;;7.87;48.41;101321.59;5053095;28;20296;-64
2021/04/24 00:33:57;;;;;;;3.25;2.10;;;;;;;7.94;49.17;101324.63;5066142;28;20546;-64
2021/04/24 00:36:23;;;;;;;4.30;2.30;;;;;;;7.83;49.77;101328.88;5071016;28;20041;-65
2021/04/24 00:38:49;;;;;;;4.38;2.35;;;;;;;7.76;49.31;101321.56;5070347;28;20037;-65
2021/04/24 00:41:14;;;;;;;4.35;2.20;;;;;;;7.68;49.76;101313.41;5056036;28;20512;-65
2021/04/24 00:43:39;;;;;;;7.28;3.20;;;;;;;7.55;48.77;101314.28;5061824;28;20577;-65
2021/04/24 00:46:09;;;;;;;5.53;3.00;;;;;;;7.44;48.96;101322.97;5061320;28;20041;-68
2021/04/24 00:48:34;;;;;;;5.30;2.50;;;;;;;7.37;50.48;101316.47;5062139;28;20504;-65
2021/04/24 00:51:00;;;;;;;5.65;2.90;;;;;;;7.34;48.80;101310.59;5060502;28;20033;-64
2021/04/24 00:53:25;;;;;;;5.72;3.08;;;;;;;7.30;48.48;101312.63;5054469;28;20051;-65
2021/04/24 00:55:51;;;;;;;5.88;2.85;;;;;;;7.26;48.27;101305.06;5064191;28;20032;-66
2021/04/24 00:58:16;;;;;;;4.93;2.67;;;;;;;7.18;48.23;101305.63;5052993;28;20127;-66
2021/04/24 01:00:41;;;;;;;6.47;3.10;;;;;;;7.06;48.97;101304.72;5065671;28;20041;-64
2021/04/24 01:03:07;;;;;;;6.40;2.90;;;;;;;6.98;50.07;101300.00;5060064;28;20060;-64
2021/04/24 01:05:35;;;;;;;6.60;3.10;;;;;;;6.81;51.65;101298.53;5056249;28;20052;-65
2021/04/24 01:08:01;;;;;;;5.93;2.80;;;;;;;6.75;50.06;101304.25;5066961;28;20044;-64
2021/04/24 01:10:30;;;;;;;5.05;2.78;;;;;;;6.63;51.59;101296.41;5052307;28;20028;-64
2021/04/24 01:12:56;;;;;;;5.28;3.10;;;;;;;6.45;51.32;101301.13;5065107;28;20029;-65
2021/04/24 01:15:22;;;;;;;5.88;3.00;;;;;;;6.31;52.13;101289.78;5062569;28;20061;-65
2021/04/24 01:17:47;;;;;;;4.88;2.60;;;;;;;6.28;51.21;101297.03;5070451;28;20380;-65
2021/04/24 01:20:14;;;;;;;4.15;2.83;;;;;;;6.30;50.51;101297.78;5064506;28;20097;-65
2021/04/24 01:22:41;;;;;;;3.65;2.78;;;;;;;6.21;51.75;101295.78;5068953;28;20037;-65
2021/04/24 01:25:09;;;;;;;5.25;3.33;;;;;;;6.01;54.28;101297.13;5070609;28;20090;-66
2021/04/24 01:27:35;;;;;;;7.97;3.60;;;;;;;5.88;54.79;101299.69;5069745;28;20098;-65
2021/04/24 01:30:00;;;;;;;7.00;4.05;;;;;;;5.92;53.06;101291.50;5051156;28;20032;-65
2021/04/24 01:32:27;;;;;;;6.93;3.28;;;;;;;5.98;53.41;101300.78;5058279;28;20083;-64
2021/04/24 01:34:52;;;;;;;5.57;3.03;;;;;;;5.99;55.70;101291.97;5071052;28;20150;-65
2021/04/24 01:37:18;;;;;;;5.28;3.47;;;;;;;5.99;57.26;101281.47;5044210;28;20409;-65
2021/04/24 01:39:43;;;;;;;5.90;3.03;;;;;;;6.11;53.28;101285.91;5060540;28;20043;-65
2021/04/24 01:42:08;;;;;;;2.80;1.90;;;;;;;6.18;55.87;101277.63;5063200;28;20378;-66
2021/04/24 01:44:34;;;;;;;4.78;2.55;;;;;;;6.29;53.85;101277.69;5057769;28;20047;-64
2021/04/24 01:46:59;;;;;;;5.63;2.30;;;;;;;6.37;53.67;101267.50;5055242;28;20426;-65
2021/04/24 01:49:25;;;;;;;3.97;2.45;;;;;;;6.45;53.57;101267.81;5059299;28;20036;-65
2021/04/24 01:51:50;;;;;;;5.10;2.55;;;;;;;6.45;54.46;101265.19;5040075;28;20029;-65
2021/04/24 01:54:16;;;;;;;7.53;3.60;;;;;;;6.52;52.93;101265.59;5066995;28;20064;-65
2021/04/24 01:56:44;;;;;;;4.13;2.50;;;;;;;6.46;55.52;101264.25;5040071;28;20036;-65
2021/04/24 01:59:09;;;;;;;3.90;2.70;;;;;;;6.47;53.87;101263.28;5052997;28;20506;-64
2021/04/24 02:01:34;;;;;;;5.57;2.90;;;;;;;6.45;55.69;101264.34;5059302;28;20040;-64
2021/04/24 02:04:00;;;;;;;4.40;2.72;;;;;;;6.31;56.23;101255.63;5070140;28;20037;-65
2021/04/24 02:06:25;;;;;;;4.45;2.45;;;;;;;6.23;57.52;101262.38;5050562;28;20032;-67
2021/04/24 02:08:51;;;;;;;5.18;2.50;;;;;;;6.19;57.54;101260.91;5065739;28;20257;-65
2021/04/24 02:11:16;;;;;;;4.75;2.50;;;;;;;6.20;58.64;101259.94;5054541;28;20551;-66
2021/04/24 02:13:43;;;;;;;3.92;2.20;;;;;;;6.18;56.63;101262.69;5071663;28;20090;-65
2021/04/24 02:16:11;;;;;;;3.38;2.20;;;;;;;6.30;55.79;101261.84;5062066;28;20029;-65
2021/04/24 02:18:36;;;;;;;4.03;2.30;;;;;;;6.51;54.41;101266.56;5057278;28;20037;-66
2021/04/24 02:21:03;;;;;;;4.55;2.35;;;;;;;6.72;53.62;101264.19;5065772;28;20047;-65
2021/04/24 02:23:34;;;;;;;3.05;2.00;;;;;;;6.76;54.52;101265.66;5072244;28;20029;-65
2021/04/24 02:26:00;;;;;;;5.93;2.50;;;;;;;6.77;53.55;101265.56;5061868;28;20376;-65
2021/04/24 02:28:25;;;;;;;5.10;2.30;;;;;;;6.74;54.72;101260.50;5067566;28;20136;-65
2021/04/24 02:30:50;;;;;;;4.72;2.70;;;;;;;6.80;53.21;101270.59;5069234;28;20095;-65
2021/04/24 02:33:16;;;;;;;4.28;2.50;;;;;;;6.79;52.91;101261.03;5061326;28;20037;-65
2021/04/24 02:35:50;;;;;;;3.42;2.47;;;;;;;6.64;55.42;101263.91;5061396;28;20044;-65
2021/04/24 02:38:20;;;;;;;5.95;3.35;;;;;;;6.53;55.14;101262.88;5055995;28;20048;-65
2021/04/24 02:40:46;;;;;;;6.32;3.10;;;;;;;6.44;55.02;101258.25;5050365;28;20565;-64
2021/04/24 02:43:13;;;;;;;6.13;2.90;;;;;;;6.48;54.50;101262.34;5059825;28;20064;-64
2021/04/24 02:45:38;;;;;;;7.32;3.10;;;;;;;6.43;54.96;101261.00;5050907;28;20045;-64
2021/04/24 02:48:04;;;;;;;5.68;3.38;;;;;;;6.45;54.25;101259.09;5066856;28;20047;-65
2021/04/24 02:50:29;;;;;;;5.85;2.70;;;;;;;6.40;55.12;101256.78;5061575;28;20037;-64
2021/04/24 02:52:55;;;;;;;7.18;3.55;;;;;;;6.42;54.61;101254.91;5059580;28;20516;-64
2021/04/24 02:55:20;;;;;;;6.18;2.85;;;;;;;6.43;55.14;101259.19;5062427;28;20288;-64
2021/04/24 02:57:46;;;;;;;5.15;2.53;;;;;;;6.45;55.28;101267.81;5056365;28;20064;-65
2021/04/24 03:00:16;;;;;;;4.00;2.67;;;;;;;6.50;54.59;101268.31;5053292;28;20036;-66
2021/04/24 03:02:41;;;;;;;4.88;2.50;;;;;;;6.54;54.73;101268.97;5045881;28;20036;-65
2021/04/24 03:05:09;;;;;;;4.50;2.60;;;;;;;6.62;53.88;101271.88;5068514;28;20067;-65
2021/04/24 03:07:34;;;;;;;5.63;2.67;;;;;;;6.61;54.06;101272.84;5062573;28;20051;-65
2021/04/24 03:09:59;;;;;;;6.85;2.42;;;;;;;6.63;54.01;101267.50;5064002;28;20393;-65
2021/04/24 03:12:25;;;;;;;5.72;2.45;;;;;;;6.67;53.78;101261.88;5067891;28;20071;-66
2021/04/24 03:14:50;;;;;;;3.80;2.65;;;;;;;6.66;54.06;101270.72;5067046;28;20082;-64
2021/04/24 03:17:15;;;;;;;4.65;2.70;;;;;;;6.64;54.64;101263.91;5056319;28;20543;-64
2021/04/24 03:19:41;;;;;;;6.57;3.05;;;;;;;6.65;53.85;101268.19;5069364;28;20524;-64
2021/04/24 03:22:06;;;;;;;5.35;2.42;;;;;;;6.56;54.60;101273.16;5067154;28;20032;-65
2021/04/24 03:24:31;;;;;;;5.50;2.55;;;;;;;6.62;54.19;101273.69;5050237;28;20071;-64
2021/04/24 03:26:57;;;;;;;7.32;3.03;;;;;;;6.51;54.79;101263.94;5052536;28;20045;-64
2021/04/24 03:29:22;;;;;;;5.88;3.33;;;;;;;6.57;54.64;101272.19;5049511;28;20025;-64
2021/04/24 03:31:47;;;;;;;4.45;2.50;;;;;;;6.57;54.59;101263.50;5061427;28;20240;-64
2021/04/24 03:34:12;;;;;;;6.75;2.63;;;;;;;6.53;55.15;101270.75;5049972;28;20052;-64
2021/04/24 03:36:38;;;;;;;5.20;2.85;;;;;;;6.57;54.71;101269.56;5043673;28;20420;-65
2021/04/24 03:39:04;;;;;;;7.30;3.00;;;;;;;6.65;54.30;101273.44;5063211;28;20039;-65
2021/04/24 03:41:29;;;;;;;6.03;2.92;;;;;;;6.69;53.73;101272.28;5069222;28;20039;-64
2021/04/24 03:43:54;;;;;;;5.72;3.13;;;;;;;6.70;54.40;101271.38;5060782;28;20641;-64
2021/04/24 03:46:20;;;;;;;8.38;4.18;;;;;;;6.85;53.24;101274.69;5060607;28;20041;-64
2021/04/24 03:48:45;;;;;;;7.43;3.30;;;;;;;6.83;53.50;101272.16;5053836;28;20123;-65
2021/04/24 03:51:11;;;;;;;4.40;2.67;;;;;;;6.71;53.81;101271.25;5062703;28;20504;-65
2021/04/24 03:53:36;;;;;;;5.70;2.60;;;;;;;6.76;53.41;101279.63;5060887;28;20167;-64
2021/04/24 03:56:02;;;;;;;6.00;3.33;;;;;;;6.73;53.65;101271.97;5063136;28;20171;-65
2021/04/24 03:58:27;;;;;;;8.27;3.10;;;;;;;6.74;53.44;101276.28;5057575;28;20083;-64
2021/04/24 04:00:52;;;;;;;5.63;3.03;;;;;;;6.75;54.26;101283.22;5049993;28;20037;-65
2021/04/24 04:03:18;;;;;;;5.35;3.00;;;;;;;6.65;53.76;101279.56;5051661;28;20025;-65
2021/04/24 04:05:45;;;;;;;6.55;3.17;;;;;;;6.64;53.77;101277.03;5056275;28;20119;-65
2021/04/24 04:08:13;;;;;;;4.60;3.00;;;;;;;6.52;54.20;101271.69;5066479;28;20020;-65
2021/04/24 04:10:41;;;;;;;8.57;3.30;;;;;;;6.46;54.19;101282.66;5047796;28;20039;-65
2021/04/24 04:13:07;;;;;;;5.00;3.00;;;;;;;6.38;54.49;101284.94;5071016;23;20067;-85
2021/04/24 04:15:33;;;;;;;5.97;3.17;;;;;;;6.26;55.15;101276.13;5051667;28;20032;-84
2021/04/24 04:18:11;;;;;;;5.80;2.97;;;;;;;6.18;55.52;101275.81;5055119;28;20096;-85
2021/04/24 04:20:40;;;;;;;6.88;3.35;;;;;;;6.05;56.67;101274.97;5049479;28;20075;-85
2021/04/24 04:23:06;;;;;;;4.68;2.45;;;;;;;6.03;56.90;101279.47;5061920;28;20063;-85
2021/04/24 04:25:31;;;;;;;7.22;2.97;;;;;;;5.96;57.05;101279.06;5060052;28;20029;-85
2021/04/24 04:27:56;;;;;;;7.38;3.35;;;;;;;5.96;57.40;101273.81;5080051;28;20044;-86
2021/04/24 04:30:23;;;;;;;5.35;2.95;;;;;;;5.94;57.44;101281.78;5058494;28;20044;-85
2021/04/24 04:32:49;;;;;;;7.07;4.10;;;;;;;6.10;56.78;101278.97;5052951;28;20029;-85
2021/04/24 04:35:15;;;;;;;5.50;3.28;;;;;;;6.19;56.12;101277.50;5046536;28;20037;-86
2021/04/24 04:37:41;;;;;;;4.63;2.80;;;;;;;6.29;55.99;101278.56;5071196;28;20116;-87
2021/04/24 04:40:09;;;;;;;4.72;2.70;;;;;;;6.33;55.93;101273.91;5061672;28;20079;-85
2021/04/24 04:42:35;;;;;;;5.35;3.33;;;;;;;6.47;54.94;101286.09;5041351;28;20057;-85
2021/04/24 04:45:00;;;;;;;7.38;3.25;;;;;;;6.44;55.68;101278.44;5059501;28;20075;-85
2021/04/24 04:47:26;;;;;;;6.35;2.90;;;;;;;6.45;54.96;101278.31;5032355;28;20033;-85
2021/04/24 04:49:51;;;;;;;7.30;2.78;;;;;;;6.51;54.75;101282.31;5050637;28;20037;-85
2021/04/24 04:52:17;;;;;;;7.97;3.17;;;;;;;6.56;54.83;101281.03;5039797;28;20033;-85
2021/04/24 04:54:42;;;;;;;5.63;3.20;;;;;;;6.55;54.71;101282.00;5043527;28;20388;-85
2021/04/24 04:57:08;;;;;;;6.00;3.33;;;;;;;6.55;54.90;101281.16;5059468;28;20039;-86
2021/04/24 04:59:33;;;;;;;8.02;3.28;;;;;;;6.56;55.04;101282.84;5041076;28;20072;-86
2021/04/24 05:01:58;;;;;;;6.05;3.05;;;;;;;6.57;55.03;101287.97;5040041;28;20512;-85
2021/04/24 05:04:24;;;;;;;4.97;3.20;;;;;;;6.63;55.03;101288.50;5055296;28;20033;-86
2021/04/24 05:06:50;;;;;;;5.25;3.10;;;;;;;6.58;55.76;101289.66;5042661;28;20500;-86
2021/04/24 05:09:18;;;;;;;4.95;2.40;;;;;;;6.56;56.21;101288.94;5064787;28;20024;-86
2021/04/24 05:11:43;;;;;;;7.13;3.72;;;;;;;6.46;56.84;101290.53;5064169;28;20036;-87
2021/04/24 05:14:08;;;;;;;8.85;3.40;;;;;;;6.44;57.67;101289.78;5045111;28;20033;-87
2021/04/24 05:16:34;;;;;;;7.63;3.95;;;;;;;6.32;57.04;101291.47;5074044;28;20037;-86
2021/04/24 05:18:59;;;;;;;7.60;4.03;;;;;;;6.45;56.59;101293.25;5052442;28;20055;-86
2021/04/24 05:21:24;;;;;;;7.45;4.45;;;;;;;6.59;56.06;101303.63;5059935;28;20041;-86
2021/04/24 05:23:50;;;;;;;4.50;2.83;;;;;;;6.73;55.76;101307.94;5061667;28;20037;-87
2021/04/24 05:26:15;;;;;;;5.75;3.20;;;;;;;6.92;55.66;101310.94;5060648;28;20076;-86
2021/04/24 05:28:40;;;;;;;6.43;3.28;;;;;;;7.19;55.47;101312.53;5064895;28;20084;-86
2021/04/24 05:31:07;;;;;;;4.53;3.22;;;;;;;7.23;54.69;101304.31;5060906;28;20447;-87
2021/04/24 05:33:32;;;;;;;7.13;3.70;;;;;;;7.43;54.73;101307.28;5066185;28;20093;-87
2021/04/24 05:36:01;;;;;;;6.85;3.22;;;;;;;7.67;53.86;101307.28;5047797;28;20041;-86
2021/04/24 05:38:27;;;;;;;7.50;3.58;;;;;;;7.88;53.78;101310.94;5058652;28;20086;-85
2021/04/24 05:40:52;;;;;;;6.55;3.50;;;;;;;8.26;52.77;101315.09;5057549;28;20029;-86
2021/04/24 05:43:17;;;;;;;5.85;3.17;;;;;;;8.59;51.93;101310.03;5044009;28;20044;-86
2021/04/24 05:45:43;;;;;;;6.05;3.15;;;;;;;9.04;50.51;101320.56;5039970;28;20033;-85
2021/04/24 05:48:08;;;;;;;4.28;2.58;;;;;;;9.53;51.08;101311.28;5043547;28;20060;-85
2021/04/24 05:50:33;;;;;;;4.63;2.88;;;;;;;9.95;50.14;101325.41;5059950;28;20040;-85
2021/04/24 05:52:59;;;;;;;5.50;2.83;;;;;;;10.51;48.20;101313.69;5049661;28;20476;-85
2021/04/24 05:55:24;;;;;;;5.38;2.70;;;;;;;10.93;47.56;101307.41;5061043;28;20037;-85
2021/04/24 05:57:49;;;;;;;6.10;3.08;;;;;;;11.16;43.68;101313.34;5038128;28;20099;-85
2021/04/24 06:00:17;;;;;;;4.10;2.60;;;;;;;11.05;46.22;101309.81;5050244;28;20127;-85
2021/04/24 06:02:43;;;;;;;5.95;3.15;;;;;;;11.46;45.99;101305.28;5042827;28;20111;-86
2021/04/24 06:05:10;;;;;;;5.43;3.10;;;;;;;11.74;42.94;101312.53;5046369;28;20033;-85
2021/04/24 06:07:39;;;;;;;5.63;2.78;;;;;;;11.82;43.46;101308.22;5044928;28;20045;-85
2021/04/24 06:10:06;;;;;;;5.28;2.90;;;;;;;12.08;42.98;101316.47;5047220;28;20035;-86
2021/04/24 06:12:32;;;;;;;4.40;2.63;;;;;;;12.26;42.37;101318.38;5044927;28;20036;-84
2021/04/24 06:14:58;;;;;;;4.60;2.45;;;;;;;12.56;42.74;101321.75;5048717;28;20028;-85
2021/04/24 06:17:24;;;;;;;6.57;3.17;;;;;;;13.01;42.22;101329.78;5063670;28;20068;-85
2021/04/24 06:19:49;;;;;;;5.88;3.28;;;;;;;12.88;41.45;101329.31;5058366;28;20029;-85
2021/04/24 06:22:14;;;;;;;6.13;3.65;;;;;;;12.37;42.37;101328.81;5048360;28;20044;-84
2021/04/24 06:24:40;;;;;;;7.28;3.47;;;;;;;12.81;43.13;101331.72;5040186;28;20492;-84
2021/04/24 06:27:06;;;;;;;6.30;3.60;;;;;;;12.59;42.03;101332.09;5055012;28;20132;-84
2021/04/24 06:29:31;;;;;;;5.53;3.20;;;;;;;12.93;42.59;101333.19;5068755;28;20380;-83
2021/04/24 06:31:57;;;;;;;7.00;3.95;;;;;;;13.18;41.53;101339.63;5045274;28;20032;-83
2021/04/24 06:34:22;;;;;;;5.22;3.08;;;;;;;13.09;42.25;101331.72;5050118;28;20037;-84
2021/04/24 06:36:47;;;;;;;5.93;3.53;;;;;;;13.57;42.30;101326.13;5063606;28;20033;-84
2021/04/24 06:39:13;;;;;;;4.85;2.92;;;;;;;13.84;39.86;101326.19;5054314;28;20059;-84
2021/04/24 06:41:38;;;;;;;5.20;2.78;;;;;;;14.21;40.38;101334.78;5047818;28;20033;-84
2021/04/24 06:44:04;;;;;;;5.15;2.40;;;;;;;14.55;39.34;101328.69;5047474;28;20040;-84
2021/04/24 06:46:29;;;;;;;4.65;2.22;;;;;;;14.92;39.74;101322.22;5050410;28;20034;-85
2021/04/24 06:48:54;;;;;;;3.80;2.30;;;;;;;15.26;39.78;101322.16;5050290;28;20052;-85
2021/04/24 06:51:20;;;;;;;4.97;2.45;;;;;;;15.42;39.48;101321.38;5048856;28;20036;-85
2021/04/24 06:53:46;;;;;;;4.68;2.63;;;;;;;15.55;36.84;101322.72;5046654;28;20096;-85
2021/04/24 06:56:11;;;;;;;5.47;2.88;;;;;;;16.25;38.22;101323.03;5039362;28;20034;-86
2021/04/24 06:58:36;;;;;;;6.93;3.60;;;;;;;17.06;35.42;101318.44;5042496;28;20033;-86
2021/04/24 07:01:03;;;;;;;5.05;2.60;;;;;;;17.29;34.44;101313.16;5060156;28;20068;-86
2021/04/24 07:03:28;;;;;;;4.13;2.30;;;;;;;17.90;33.30;101315.06;5039511;28;20085;-84
2021/04/24 07:05:53;;;;;;;5.35;2.90;;;;;;;18.20;34.43;101321.31;5058795;28;20796;-84
2021/04/24 07:08:19;;;;;;;4.72;3.15;;;;;;;17.85;33.69;101318.28;5059940;28;20036;-84
2021/04/24 07:10:44;;;;;;;6.70;3.40;;;;;;;17.67;34.90;101315.06;5067574;28;20036;-84
2021/04/24 07:13:10;;;;;;;5.57;3.42;;;;;;;16.99;35.62;101320.16;5042229;28;20071;-84
2021/04/24 07:15:36;;;;;;;4.63;2.90;;;;;;;16.28;37.28;101311.19;5048081;28;20048;-85
2021/04/24 07:18:01;;;;;;;4.78;2.83;;;;;;;16.82;37.31;101315.91;5053256;28;20088;-84
2021/04/24 07:20:27;;;;;;;4.85;2.83;;;;;;;17.14;36.52;101310.41;5063145;28;20092;-84
2021/04/24 07:22:52;;;;;;;8.85;3.83;;;;;;;17.58;34.62;101315.13;5055794;28;20053;-84
2021/04/24 07:25:17;;;;;;;5.65;3.00;;;;;;;17.92;35.45;101313.88;5044027;28;20026;-85
2021/04/24 07:27:43;;;;;;;4.40;2.83;;;;;;;18.52;33.97;101303.22;5045466;28;20033;-85
2021/04/24 07:30:10;;;;;;;4.75;2.83;;;;;;;18.71;34.05;101310.72;5045829;28;20047;-84
2021/04/24 07:32:36;;;;;;;6.15;4.25;;;;;;;19.01;33.40;101303.50;5061014;28;20488;-84
2021/04/24 07:35:04;;;;;;;5.70;3.05;;;;;;;18.75;33.90;101303.97;5048343;28;20092;-85
2021/04/24 07:37:29;;;;;;;5.10;3.30;;;;;;;18.15;34.96;101311.16;5042582;28;20037;-84
2021/04/24 07:39:55;;;;;;;8.55;3.70;;;;;;;19.02;34.03;101307.84;5047252;28;20132;-84
2021/04/24 07:42:21;;;;;;;6.03;3.45;;;;;;;19.01;33.63;101311.53;5051417;28;20048;-85
2021/04/24 07:44:47;;;;;;;5.05;3.08;;;;;;;19.27;33.89;101312.84;5066277;28;20043;-86
2021/04/24 07:47:12;;;;;;;5.32;3.08;;;;;;;19.28;33.13;101314.50;5050775;28;20592;-86
2021/04/24 07:49:38;;;;;;;3.97;2.67;;;;;;;19.84;32.53;101313.84;5045752;28;20037;-86
2021/04/24 07:52:06;;;;;;;5.03;3.25;;;;;;;19.78;31.10;101309.25;5053329;28;20060;-86
2021/04/24 07:54:33;;;;;;;3.60;2.22;;;;;;;20.21;31.47;101311.84;5046937;28;20029;-86
2021/04/24 07:56:59;;;;;;;4.32;2.72;;;;;;;21.19;30.40;101310.72;5056324;28;20037;-86
2021/04/24 07:59:25;;;;;;;6.90;3.45;;;;;;;22.04;28.30;101312.88;5045697;28;20029;-86
2021/04/24 08:01:51;;;;;;;4.38;2.30;;;;;;;22.06;28.45;101313.50;5041960;28;20116;-86
2021/04/24 08:04:16;;;;;;;4.20;2.58;;;;;;;22.20;28.28;101311.63;5055207;28;20029;-86
2021/04/24 08:06:42;;;;;;;6.40;3.60;;;;;;;22.03;28.25;101312.06;5059613;28;20108;-84
2021/04/24 08:09:08;;;;;;;6.03;2.92;;;;;;;21.72;29.33;101311.88;5043040;28;20400;-84
2021/04/24 08:11:33;;;;;;;4.57;2.75;;;;;;;21.80;29.26;101319.72;5042257;28;20033;-85
2021/04/24 08:13:59;;;;;;;4.88;3.03;;;;;;;21.89;28.89;101323.88;5050529;28;20029;-85
2021/04/24 08:16:24;;;;;;;4.47;2.75;;;;;;;22.57;27.17;101320.06;5059395;28;20047;-86
2021/04/24 08:18:50;;;;;;;4.95;2.65;;;;;;;22.30;26.82;101316.63;5042668;28;20051;-85
2021/04/24 08:21:16;;;;;;;5.47;3.10;;;;;;;22.71;26.34;101312.78;5042019;28;20116;-85
2021/04/24 08:23:42;;;;;;;6.90;3.25;;;;;;;23.11;26.48;101303.47;5066602;28;20053;-86
2021/04/24 08:26:07;;;;;;;5.47;3.67;;;;;;;21.74;27.02;101310.63;5050979;28;20039;-86
2021/04/24 08:28:33;;;;;;;6.10;3.85;;;;;;;22.31;27.23;101308.34;5059108;28;20037;-85
2021/04/24 08:30:58;;;;;;;3.70;2.60;;;;;;;22.36;28.03;101313.09;5052485;28;20036;-85
2021/04/24 08:33:23;;;;;;;4.13;2.80;;;;;;;22.09;27.94;101307.69;5045028;28;20658;-83
2021/04/24 08:35:49;;;;;;;5.38;3.30;;;;;;;22.27;26.85;101305.22;5045963;28;20049;-84
2021/04/24 08:38:14;;;;;;;5.40;3.58;;;;;;;22.61;26.40;101305.94;5050946;28;20078;-85
2021/04/24 08:40:39;;;;;;;6.45;3.78;;;;;;;22.29;27.63;101301.50;5044863;28;20377;-85
2021/04/24 08:43:05;;;;;;;5.15;2.55;;;;;;;23.08;27.04;101305.81;5049142;28;20079;-86
2021/04/24 08:45:31;;;;;;;6.35;3.67;;;;;;;23.25;26.38;101300.72;5054057;28;20029;-85
2021/04/24 08:47:56;;;;;;;5.28;3.10;;;;;;;23.63;26.10;101302.53;5054025;28;20041;-86
2021/04/24 08:50:26;;;;;;;4.85;2.90;;;;;;;23.19;26.35;101293.47;5051093;28;20404;-85
2021/04/24 08:52:53;;;;;;;5.55;2.90;;;;;;;23.22;26.61;101293.06;5040101;28;20044;-84
2021/04/24 08:55:22;;;;;;;5.68;2.75;;;;;;;23.81;25.16;101293.69;5045903;28;20067;-86
2021/04/24 08:57:48;;;;;;;5.32;2.50;;;;;;;24.53;24.02;101284.06;5063357;28;20060;-84
2021/04/24 09:00:16;;;;;;;4.50;2.90;;;;;;;24.46;23.58;101288.72;5048002;28;20033;-86
2021/04/24 09:02:44;;;;;;;6.18;3.05;;;;;;;24.66;23.45;101288.47;5067728;28;20033;-86
2021/04/24 09:05:12;;;;;;;4.35;2.50;;;;;;;24.96;23.95;101290.41;5059084;28;20461;-85
2021/04/24 09:07:37;;;;;;;5.60;3.17;;;;;;;24.54;22.96;101277.59;5056625;28;20041;-85
2021/04/24 09:10:04;;;;;;;6.47;2.92;;;;;;;24.05;24.67;101284.75;5042466;28;20040;-85
2021/04/24 09:12:40;;;;;;;5.28;2.50;;;;;;;23.88;24.08;101278.25;5052860;28;20029;-87
2021/04/24 09:15:17;;;;;;;3.78;2.42;;;;;;;24.21;24.46;101271.72;5041609;28;20064;-87
2021/04/24 09:17:57;;;;;;;5.25;2.55;;;;;;;23.66;24.89;101277.78;5061200;28;20045;-85
2021/04/24 09:20:24;;;;;;;;;;;;;;;22.97;24.45;101266.81;5058469;28;20618;-87
2021/04/24 09:22:59;;;;;;;4.78;2.60;;;;;;;23.08;25.31;101271.56;5060746;28;19963;-85
2021/04/24 09:26:01;;;;;;;3.70;2.50;;;;;;;22.65;25.71;101274.03;5034291;28;20037;-85
2021/04/24 09:28:37;;;;;;;5.93;3.13;;;;;;;22.83;26.10;101266.03;5062862;28;20033;-87
2021/04/24 09:31:15;;;;;;;5.32;3.03;;;;;;;22.17;26.07;101263.56;5045926;28;20033;-86
2021/04/24 09:33:42;;;;;;;6.60;2.97;;;;;;;22.73;26.50;101259.47;5032409;28;20040;-86
2021/04/24 09:36:08;;;;;;;5.80;3.35;;;;;;;21.26;28.70;101256.09;5039078;28;20049;-86
2021/04/24 09:38:37;;;;;;;4.20;2.40;;;;;;;21.64;27.90;101256.34;5036123;28;20431;-86
2021/04/24 09:41:07;;;;;;;5.50;3.10;;;;;;;21.21;28.57;101251.31;5059777;28;20100;-87
2021/04/24 09:43:46;;;;;;;5.43;2.72;;;;;;;21.28;27.49;101246.78;5066264;28;20036;-87
2021/04/24 09:46:13;;;;;;;5.10;2.55;;;;;;;21.62;27.20;101245.00;5043663;28;20166;-86
2021/04/24 09:48:39;;;;;;;6.13;3.13;;;;;;;21.62;27.08;101250.38;5040902;28;20033;-87
2021/04/24 09:51:19;;;;;;;4.93;3.00;;;;;;;21.10;25.96;101249.25;5041659;28;20299;-86
2021/04/24 09:53:58;;;;;;;4.93;2.73;;;;;;;20.68;30.39;101243.94;5048572;28;20033;-86
2021/04/24 09:56:26;;;;;;;5.10;2.33;;;;;;;20.98;27.18;101240.94;5059240;28;20049;-85
2021/04/24 09:59:00;;;;;;;6.93;3.22;;;;;;;20.53;28.12;101236.00;5051879;28;20553;-85
2021/04/24 10:01:28;;;;;;;5.90;3.20;;;;;;;20.52;27.34;101230.81;5037014;28;20037;-84
2021/04/24 10:03:55;;;;;;;4.95;2.90;;;;;;;19.61;31.08;101228.16;5055542;28;20053;-85
2021/04/24 10:06:21;;;;;;;6.15;3.00;;;;;;;19.83;29.16;101226.28;5042279;28;20086;-85
2021/04/24 10:08:48;;;;;;;6.90;2.83;;;;;;;19.50;29.47;101219.63;5059789;28;20131;-85
2021/04/24 10:11:27;;;;;;;4.60;2.88;;;;;;;19.59;28.87;101219.47;5060501;28;20037;-85
2021/04/24 10:13:53;;;;;;;4.50;2.67;;;;;;;19.84;30.94;101218.06;5056948;28;20059;-85
2021/04/24 10:16:36;;;;;;;7.03;3.88;;;;;;;19.76;29.14;101209.31;5068266;28;20448;-85
2021/04/24 10:19:09;;;;;;;5.57;3.55;;;;;;;19.72;28.15;101207.03;5050392;28;20033;-84
2021/04/24 10:21:36;;;;;;;4.72;3.38;;;;;;;19.70;29.14;101203.72;5039795;28;20038;-84
2021/04/24 10:24:03;;;;;;;6.75;3.25;;;;;;;19.68;29.21;101203.06;5058800;28;20051;-85
2021/04/24 10:26:29;;;;;;;6.60;3.30;;;;;;;19.12;30.15;101207.53;5041713;28;20036;-85
2021/04/24 10:28:58;;;;;;;8.43;4.03;;;;;;;19.40;27.85;101211.09;5043804;28;20034;-85
2021/04/24 10:31:23;;;;;;;5.28;3.35;;;;;;;18.64;29.88;101208.03;5044762;28;20102;-85
2021/04/24 10:33:49;;;;;;;4.70;2.85;;;;;;;18.80;30.54;101205.13;5057598;28;20104;-85
2021/04/24 10:36:16;;;;;;;5.53;3.00;;;;;;;18.64;29.57;101206.16;5040098;28;20040;-85
2021/04/24 10:38:49;;;;;;;3.92;2.60;;;;;;;18.84;30.01;101201.06;5062266;28;20420;-85
2021/04/24 10:41:36;;;;;;;6.20;3.50;;;;;;;19.22;29.01;101197.31;5043059;28;20052;-85
2021/04/24 10:44:12;;;;;;;7.03;3.20;;;;;;;18.98;29.72;101193.97;5051856;28;20033;-85
2021/04/24 10:46:54;;;;;;;6.75;3.15;;;;;;;19.14;30.10;101184.00;5057532;28;20104;-85
2021/04/24 10:49:22;;;;;;;6.50;3.20;;;;;;;19.28;29.32;101188.47;5056808;28;20029;-85
2021/04/24 10:51:55;;;;;;;8.68;3.58;;;;;;;19.13;29.40;101185.88;5044262;28;20041;-84
2021/04/24 10:54:22;;;;;;;5.07;2.80;;;;;;;19.06;30.15;101177.75;5070415;28;20068;-85
2021/04/24 10:56:48;;;;;;;5.97;3.22;;;;;;;19.06;31.83;101174.25;5048241;28;20091;-84
2021/04/24 10:59:21;;;;;;;4.88;2.80;;;;;;;19.05;30.15;101170.75;5045466;28;20033;-84
2021/04/24 11:02:07;;;;;;;5.75;3.47;;;;;;;19.09;28.16;101172.03;5062598;28;20400;-85
2021/04/24 11:05:22;;;;;;;4.85;3.13;;;;;;;19.03;30.50;101172.78;5052237;28;20061;-85
2021/04/24 11:07:47;;;;;;;7.65;3.30;;;;;;;18.94;28.79;101167.75;5034561;28;20141;-86
2021/04/24 11:10:13;;;;;;;6.93;2.97;;;;;;;18.96;28.68;101165.72;5043964;28;20416;-86
2021/04/24 11:12:46;;;;;;;5.72;2.83;;;;;;;19.13;29.38;101161.75;5044273;28;20041;-87
2021/04/24 11:15:14;;;;;;;5.45;3.50;;;;;;;19.24;28.00;101165.78;5046595;28;20112;-86
2021/04/24 11:17:40;;;;;;;6.75;3.50;;;;;;;19.18;28.06;101153.13;5042626;28;20086;-86
2021/04/24 11:20:08;;;;;;;7.30;3.25;;;;;;;19.10;27.32;101162.13;5058471;28;20112;-86
2021/04/24 11:22:43;;;;;;;6.80;3.05;;;;;;;19.13;28.67;101153.69;5041104;28;20124;-85
2021/04/24 11:25:18;;;;;;;6.05;3.20;;;;;;;19.03;28.68;101153.22;5046148;28;20319;-85
2021/04/24 11:28:10;;;;;;;7.63;3.67;;;;;;;18.71;28.42;101141.94;5038369;28;20037;-85
2021/04/24 11:30:54;;;;;;;4.53;3.10;;;;;;;18.68;27.58;101142.31;5041979;28;20037;-85